Time;durP1;ratioP1;P1;durP2;ratioP2;P2;SDS_P1;SDS_P2;PMS_P1;PMS_P2;Temp;Humidity;BMP_temperature;BMP_pressure;BME280_temperature;BME280_humidity;BME280_pressure;Samples;Min_cycle;Max_cycle;Signal;HPM_P1;HPM_P2
2021/11/02 00:00:34;;;;;;;5.75;3.35;;;;;;;15.29;43.46;99597.88;4978211;28;20124;-76
2021/11/02 00:03:01;;;;;;;4.93;2.10;;;;;;;15.27;43.78;99597.19;5001126;28;20394;-76
2021/11/02 00:05:29;;;;;;;4.55;2.30;;;;;;;15.23;43.92;99592.03;4988809;28;20058;-76
2021/11/02 00:07:56;;;;;;;5.07;2.30;;;;;;;15.22;43.45;99600.41;4979839;28;20058;-77
2021/11/02 00:10:23;;;;;;;4.72;2.30;;;;;;;15.20;43.53;99607.91;4974677;28;20133;-76
2021/11/02 00:12:50;;;;;;;4.80;2.17;;;;;;;15.18;43.62;99602.59;4987141;28;20042;-77
2021/11/02 00:15:21;;;;;;;5.57;2.20;;;;;;;15.17;44.11;99602.75;4992019;28;20054;-76
2021/11/02 00:17:51;;;;;;;4.78;2.70;;;;;;;15.16;43.62;99601.03;4995471;28;20050;-77
2021/11/02 00:20:18;;;;;;;6.43;2.38;;;;;;;15.14;43.79;99603.09;4966764;28;20089;-77
2021/11/02 00:22:54;;;;;;;6.07;2.40;;;;;;;15.11;43.86;99604.28;4990714;28;20413;-77
2021/11/02 00:25:22;;;;;;;5.40;2.10;;;;;;;15.10;43.96;99602.56;4971680;28;20459;-77
2021/11/02 00:27:49;;;;;;;5.03;2.30;;;;;;;15.09;44.01;99614.50;4979738;28;20046;-77
2021/11/02 00:30:17;;;;;;;5.63;2.15;;;;;;;15.08;43.92;99601.84;4992203;28;20066;-77
2021/11/02 00:32:47;;;;;;;4.68;2.25;;;;;;;15.07;43.75;99605.59;4992000;28;20100;-77
2021/11/02 00:35:15;;;;;;;5.68;2.15;;;;;;;15.06;43.96;99606.66;5003127;28;20062;-77
2021/11/02 00:37:42;;;;;;;6.38;2.20;;;;;;;15.04;43.80;99614.16;4994785;28;20446;-77
2021/11/02 00:40:14;;;;;;;5.05;2.40;;;;;;;15.06;44.02;99612.13;4977670;28;20065;-77
2021/11/02 00:42:52;;;;;;;4.25;2.20;;;;;;;15.03;43.76;99603.38;4989688;28;20124;-77
2021/11/02 00:45:31;;;;;;;5.72;2.13;;;;;;;15.03;44.18;99609.69;4985467;28;20058;-77
2021/11/02 00:48:00;;;;;;;5.63;2.22;;;;;;;15.01;44.15;99609.00;4992653;28;20050;-77
2021/11/02 00:50:28;;;;;;;4.30;2.30;;;;;;;15.01;43.81;99608.13;4985758;28;20391;-77
2021/11/02 00:52:57;;;;;;;5.40;1.95;;;;;;;14.99;43.74;99607.47;4970536;28;20159;-77
2021/11/02 00:55:24;;;;;;;5.05;2.30;;;;;;;14.96;44.11;99605.03;4993002;28;20576;-77
2021/11/02 00:57:50;;;;;;;5.15;2.22;;;;;;;14.95;43.96;99612.38;4969172;28;20085;-77
2021/11/02 01:00:18;;;;;;;5.65;2.65;;;;;;;14.92;44.17;99609.94;4985899;28;20082;-77
2021/11/02 01:02:46;;;;;;;5.45;2.22;;;;;;;14.91;43.78;99610.09;4989126;28;20049;-78
2021/11/02 01:05:14;;;;;;;3.63;2.20;;;;;;;14.88;44.29;99611.31;4972901;28;20500;-77
2021/11/02 01:07:41;;;;;;;4.85;2.20;;;;;;;14.85;43.94;99615.22;4990486;28;20052;-77
2021/11/02 01:10:15;;;;;;;5.43;2.25;;;;;;;14.82;44.21;99618.25;4993947;28;20054;-77
2021/11/02 01:12:44;;;;;;;3.83;2.05;;;;;;;14.80;44.37;99606.66;4989921;28;20047;-77
2021/11/02 01:15:12;;;;;;;5.38;2.70;;;;;;;14.79;44.38;99604.94;4980672;28;20105;-77
2021/11/02 01:17:39;;;;;;;3.67;2.20;;;;;;;14.77;44.36;99606.09;4991626;28;20104;-77
2021/11/02 01:20:09;;;;;;;4.22;1.95;;;;;;;14.78;44.33;99607.81;4972529;28;20050;-77
2021/11/02 01:22:36;;;;;;;3.55;1.83;;;;;;;14.74;44.38;99601.78;4990892;28;20047;-77
2021/11/02 01:25:04;;;;;;;3.67;1.80;;;;;;;14.74;44.38;99599.06;4985648;28;20089;-77
2021/11/02 01:27:31;;;;;;;4.03;2.30;;;;;;;14.73;44.45;99591.06;5001650;28;20054;-77
2021/11/02 01:29:57;;;;;;;3.83;2.00;;;;;;;14.72;44.58;99603.00;4973414;28;20086;-77
2021/11/02 01:32:24;;;;;;;4.57;2.53;;;;;;;14.72;44.33;99608.47;4989389;28;20085;-77
2021/11/02 01:34:51;;;;;;;3.63;1.90;;;;;;;14.70;44.40;99605.88;4987675;28;20457;-77
2021/11/02 01:37:18;;;;;;;4.63;2.08;;;;;;;14.70;44.39;99607.75;4991745;28;20082;-77
2021/11/02 01:39:44;;;;;;;5.40;2.20;;;;;;;14.68;44.34;99607.03;5004771;28;20050;-77
2021/11/02 01:42:11;;;;;;;5.35;2.10;;;;;;;14.69;44.66;99612.34;4975683;28;20405;-77
2021/11/02 01:44:38;;;;;;;5.22;2.10;;;;;;;14.68;44.80;99607.91;4993161;28;20045;-77
2021/11/02 01:47:05;;;;;;;5.03;1.98;;;;;;;14.68;44.75;99605.16;4984980;28;20082;-77
2021/11/02 01:49:34;;;;;;;5.07;2.20;;;;;;;14.68;44.69;99613.38;4991591;28;20133;-77
2021/11/02 01:52:02;;;;;;;5.45;2.58;;;;;;;14.66;44.69;99609.94;5000123;28;20136;-77
2021/11/02 01:54:29;;;;;;;4.55;2.10;;;;;;;14.66;44.46;99612.66;4992113;28;20050;-78
2021/11/02 01:56:56;;;;;;;5.03;2.03;;;;;;;14.63;44.76;99606.69;4980326;28;20489;-77
2021/11/02 01:59:26;;;;;;;4.32;1.88;;;;;;;14.61;44.72;99606.81;5008498;28;20093;-77
2021/11/02 02:02:07;;;;;;;3.15;1.75;;;;;;;14.62;44.55;99597.63;4998888;28;20050;-77
2021/11/02 02:05:01;;;;;;;3.88;1.90;;;;;;;14.55;44.88;99603.88;4994652;28;20096;-77
2021/11/02 02:08:02;;;;;;;3.60;1.92;;;;;;;14.53;44.84;99604.03;5012502;28;20485;-78
2021/11/02 02:10:50;;;;;;;4.05;1.75;;;;;;;14.51;44.86;99608.78;5001731;28;20049;-77
2021/11/02 02:13:41;;;;;;;3.80;1.85;;;;;;;14.49;44.88;99609.97;4989458;28;20137;-77
2021/11/02 02:16:23;;;;;;;3.90;1.90;;;;;;;14.46;45.12;99605.69;4989022;28;20584;-77
2021/11/02 02:19:00;;;;;;;4.05;1.95;;;;;;;14.45;45.01;99604.81;4985680;28;20429;-77
2021/11/02 02:21:54;;;;;;;3.80;1.80;;;;;;;14.42;45.30;99598.81;4995151;28;20108;-77
2021/11/02 02:24:56;;;;;;;4.32;1.85;;;;;;;14.43;45.36;99593.19;4991857;28;20056;-76
2021/11/02 02:27:26;;;;;;;4.55;1.83;;;;;;;14.42;45.12;99596.06;4996102;28;20183;-76
2021/11/02 02:29:54;;;;;;;5.00;1.90;;;;;;;14.43;44.68;99598.66;4991810;28;20529;-77
2021/11/02 02:32:26;;;;;;;3.78;1.90;;;;;;;14.45;44.99;99604.81;4993384;28;20513;-77
2021/11/02 02:34:56;;;;;;;4.18;1.80;;;;;;;14.44;44.77;99608.56;4993817;28;20054;-76
2021/11/02 02:37:25;;;;;;;2.83;1.80;;;;;;;14.44;44.68;99602.25;4973628;28;20130;-76
2021/11/02 02:39:55;;;;;;;3.40;1.90;;;;;;;14.43;44.88;99604.13;4986091;28;20137;-77
2021/11/02 02:42:23;;;;;;;3.75;1.70;;;;;;;14.42;44.95;99598.81;4988785;28;20051;-76
2021/11/02 02:44:51;;;;;;;4.53;1.83;;;;;;;14.41;45.11;99597.13;4995727;28;20089;-76
2021/11/02 02:47:19;;;;;;;4.50;1.80;;;;;;;14.42;44.58;99604.25;4990788;28;20054;-77
2021/11/02 02:49:47;;;;;;;2.80;1.63;;;;;;;14.40;44.75;99598.13;4972327;28;20113;-77
2021/11/02 02:52:15;;;;;;;4.10;1.67;;;;;;;14.40;45.07;99590.81;4969137;28;20061;-77
2021/11/02 02:54:45;;;;;;;3.75;1.63;;;;;;;14.40;45.24;99582.59;4988528;28;20105;-77
2021/11/02 02:57:13;;;;;;;3.25;1.58;;;;;;;14.38;44.74;99598.28;4990343;28;20050;-77
2021/11/02 02:59:41;;;;;;;3.63;1.50;;;;;;;14.37;44.97;99588.34;4987314;28;20047;-77
2021/11/02 03:02:12;;;;;;;3.72;1.50;;;;;;;14.37;45.06;99599.25;4987091;28;20568;-77
2021/11/02 03:04:44;;;;;;;3.17;1.48;;;;;;;14.39;45.19;99599.13;4987436;28;20054;-77
2021/11/02 03:07:11;;;;;;;4.75;1.63;;;;;;;14.34;44.94;99594.09;4988623;28;20078;-77
2021/11/02 03:09:41;;;;;;;3.78;1.58;;;;;;;14.37;45.14;99604.72;4997075;28;20050;-77
2021/11/02 03:12:11;;;;;;;3.00;1.70;;;;;;;14.36;45.07;99596.69;4970841;28;20038;-77
2021/11/02 03:17:35;;;;;;;4.75;1.73;;;;;;;14.30;45.18;99594.59;4987512;28;20104;-77
2021/11/02 03:50:45;;;;;;;3.22;1.35;;;;;;;14.11;45.38;99601.06;4984057;28;20050;-77
2021/11/02 03:56:28;;;;;;;3.22;1.60;;;;;;;14.08;45.58;99596.75;4982061;28;20112;-77
2021/11/02 05:10:52;;;;;;;1.98;1.20;;;;;;;14.22;46.59;99572.69;4991923;28;20050;-78
2021/11/02 05:49:31;;;;;;;2.92;1.50;;;;;;;14.13;46.45;99557.22;4986858;28;20150;-77
2021/11/02 06:00:07;;;;;;;3.50;1.42;;;;;;;14.13;46.17;99571.75;4991800;28;20061;-77
2021/11/02 06:30:51;;;;;;;;;;;;;;;13.83;46.87;99561.22;4986669;28;20086;-78
2021/11/02 06:57:09;;;;;;;3.55;1.80;;;;;;;13.93;46.43;99587.41;4992169;28;20054;-78
2021/11/02 07:11:01;;;;;;;;;;;;;;;13.67;47.12;99591.91;4989328;28;20056;-72
2021/11/02 07:28:16;;;;;;;3.47;1.42;;;;;;;14.02;47.12;99612.91;4981777;28;20590;-76
2021/11/02 08:47:12;;;;;;;2.47;1.30;;;;;;;14.19;46.82;99617.50;5003430;28;20097;-78
2021/11/02 08:49:45;;;;;;;3.67;1.67;;;;;;;14.25;47.08;99625.06;4977869;28;20058;-78
2021/11/02 08:52:18;;;;;;;2.97;1.55;;;;;;;14.26;46.93;99615.88;4974685;28;20054;-77
2021/11/02 08:54:48;;;;;;;3.63;1.73;;;;;;;14.28;46.76;99607.53;4992931;28;20050;-78
2021/11/02 08:57:17;;;;;;;4.22;1.67;;;;;;;14.31;46.95;99613.56;5005653;28;20068;-78
2021/11/02 08:59:45;;;;;;;3.70;1.60;;;;;;;14.34;46.67;99612.34;5005993;28;20080;-77
2021/11/02 09:02:18;;;;;;;3.67;1.50;;;;;;;14.37;47.07;99615.66;4981285;28;20046;-77
2021/11/02 09:04:46;;;;;;;2.92;1.50;;;;;;;14.39;46.64;99618.25;4985855;28;20481;-77
2021/11/02 09:07:22;;;;;;;4.00;1.77;;;;;;;14.44;46.65;99614.03;4998151;28;20035;-77
2021/11/02 09:09:50;;;;;;;4.07;1.52;;;;;;;14.43;46.67;99620.50;4993081;28;20042;-76
2021/11/02 09:12:19;;;;;;;4.13;1.70;;;;;;;14.46;46.75;99617.47;4982961;28;20061;-73
2021/11/02 09:14:45;;;;;;;5.30;1.60;;;;;;;14.48;47.06;99625.50;4999199;28;20061;-76
2021/11/02 09:17:14;;;;;;;3.00;1.40;;;;;;;14.52;46.95;99624.16;5002228;28;20054;-77
2021/11/02 09:19:41;;;;;;;4.65;1.55;;;;;;;14.54;47.14;99626.75;4960245;28;20053;-77
2021/11/02 09:22:15;;;;;;;3.22;1.50;;;;;;;14.59;46.93;99625.25;4975514;28;20050;-78
2021/11/02 09:24:42;;;;;;;3.60;1.58;;;;;;;14.62;46.80;99621.34;4979236;28;20065;-77
2021/11/02 09:27:10;;;;;;;3.45;1.55;;;;;;;14.66;46.88;99625.50;4996656;28;20489;-77
2021/11/02 09:29:38;;;;;;;2.63;1.40;;;;;;;14.68;46.72;99632.50;4997142;28;20092;-76
2021/11/02 09:32:10;;;;;;;3.88;1.73;;;;;;;14.72;46.60;99630.31;4987411;28;20120;-77
2021/11/02 09:34:37;;;;;;;2.85;1.60;;;;;;;14.70;46.37;99630.47;5008082;28;20049;-77
2021/11/02 09:37:17;;;;;;;2.72;1.50;;;;;;;14.76;46.22;99628.97;4995227;28;20057;-76
2021/11/02 09:39:53;;;;;;;3.70;1.65;;;;;;;14.77;46.47;99630.69;4969706;28;20455;-76
2021/11/02 09:43:02;;;;;;;2.83;1.27;;;;;;;14.77;46.56;99630.69;5002025;28;20080;-77
2021/11/02 09:45:59;;;;;;;4.00;1.80;;;;;;;14.78;46.46;99636.00;4972988;28;20058;-77
2021/11/02 09:48:51;;;;;;;3.85;1.90;;;;;;;14.77;46.75;99633.41;4989684;28;20489;-77
2021/11/02 09:51:30;;;;;;;3.17;1.75;;;;;;;14.79;46.89;99634.13;4982525;28;20089;-77
2021/11/02 09:54:19;;;;;;;4.45;1.80;;;;;;;14.78;47.13;99637.88;5003761;28;20089;-76
2021/11/02 09:56:57;;;;;;;3.85;1.50;;;;;;;14.79;46.71;99634.13;5003431;28;20052;-78
2021/11/02 09:59:26;;;;;;;3.70;1.58;;;;;;;14.79;46.75;99634.97;5008186;28;20097;-77
2021/11/02 10:02:25;;;;;;;3.33;1.70;;;;;;;14.80;47.28;99635.84;4975188;28;20050;-77
2021/11/02 10:05:07;;;;;;;3.15;1.27;;;;;;;14.82;47.17;99634.66;5007939;28;20061;-76
2021/11/02 10:08:28;;;;;;;3.92;1.70;;;;;;;14.82;47.40;99626.44;5005009;28;20046;-77
2021/11/02 10:11:19;;;;;;;2.47;1.40;;;;;;;14.83;47.07;99630.91;4910442;29;20060;-76
2021/11/02 10:14:07;;;;;;;2.70;1.45;;;;;;;14.83;47.53;99633.63;4929687;29;20052;-77
2021/11/02 10:17:11;;;;;;;3.67;1.42;;;;;;;14.77;47.93;99631.53;4962040;28;20142;-76
2021/11/02 10:20:03;;;;;;;4.90;1.75;;;;;;;14.85;48.12;99628.00;4922575;29;20083;-77
2021/11/02 10:22:48;;;;;;;3.00;1.75;;;;;;;14.83;47.53;99628.16;5004962;28;20057;-76
2021/11/02 10:25:37;;;;;;;3.78;1.60;;;;;;;14.87;47.67;99627.84;5011655;28;20041;-77
2021/11/02 10:28:31;;;;;;;2.63;1.50;;;;;;;14.85;47.72;99623.41;5003337;28;20105;-77
2021/11/02 10:31:02;;;;;;;4.10;1.58;;;;;;;14.87;47.64;99623.25;4986958;28;20058;-76
2021/11/02 10:33:29;;;;;;;2.17;1.30;;;;;;;14.89;47.71;99625.84;4985624;28;20374;-77
2021/11/02 10:36:11;;;;;;;2.40;1.25;;;;;;;14.90;47.32;99622.09;5003238;28;20074;-77
2021/11/02 10:39:06;;;;;;;3.65;1.50;;;;;;;14.91;47.42;99627.38;4982801;28;20046;-77
2021/11/02 10:41:56;;;;;;;3.72;1.60;;;;;;;14.91;47.75;99619.16;4978803;28;20105;-77
2021/11/02 10:44:34;;;;;;;3.97;1.33;;;;;;;14.93;47.95;99619.88;4953672;28;20121;-78
2021/11/02 10:47:22;;;;;;;3.05;1.52;;;;;;;14.93;47.90;99621.75;4963261;28;20184;-78
2021/11/02 10:49:54;;;;;;;4.35;1.75;;;;;;;14.95;48.56;99615.09;4967778;28;20135;-78
2021/11/02 10:52:36;;;;;;;2.58;1.55;;;;;;;14.96;48.26;99625.03;4952517;28;20093;-77
2021/11/02 10:55:18;;;;;;;2.17;1.27;;;;;;;14.95;47.86;99626.03;4945902;28;20086;-76
2021/11/02 10:58:12;;;;;;;3.67;1.60;;;;;;;14.99;47.96;99630.16;4965992;28;20179;-76
2021/11/02 11:00:41;;;;;;;3.78;1.83;;;;;;;14.99;47.76;99621.94;4965961;28;20071;-76
2021/11/02 11:03:10;;;;;;;3.72;1.23;;;;;;;15.02;47.89;99628.97;4958074;28;20054;-77
2021/11/02 11:05:37;;;;;;;3.00;1.42;;;;;;;15.03;48.14;99622.50;4953486;28;20522;-77
2021/11/02 11:08:05;;;;;;;3.65;1.77;;;;;;;15.05;48.17;99626.78;4963445;28;20055;-76
2021/11/02 11:10:34;;;;;;;3.53;1.40;;;;;;;15.05;48.16;99629.53;4954308;28;20505;-76
2021/11/02 11:13:02;;;;;;;3.67;1.52;;;;;;;15.06;48.27;99620.31;4961357;28;20059;-77
2021/11/02 11:15:35;;;;;;;6.75;1.85;;;;;;;15.08;48.54;99623.72;4958960;28;20055;-76
2021/11/02 11:18:04;;;;;;;3.75;1.88;;;;;;;15.06;48.69;99620.31;4935844;29;20533;-78
2021/11/02 11:20:32;;;;;;;3.47;1.65;;;;;;;15.09;48.35;99625.44;4964393;28;20435;-77
2021/11/02 11:23:05;;;;;;;3.40;1.50;;;;;;;15.12;48.87;99618.81;4994545;28;20058;-77
2021/11/02 11:25:56;;;;;;;3.30;1.60;;;;;;;15.10;48.87;99623.56;4996733;28;20445;-77
2021/11/02 11:28:24;;;;;;;3.05;1.50;;;;;;;15.10;48.17;99613.50;4962909;28;20057;-76
2021/11/02 11:30:57;;;;;;;2.80;1.35;;;;;;;15.13;48.82;99615.06;4988827;28;20086;-76
2021/11/02 11:33:29;;;;;;;4.53;1.60;;;;;;;15.12;48.70;99616.06;4980398;28;20046;-76
2021/11/02 11:36:05;;;;;;;1.98;1.27;;;;;;;15.12;48.62;99613.34;4993237;28;20065;-76
2021/11/02 11:38:43;;;;;;;3.33;1.50;;;;;;;15.13;48.93;99612.31;5006600;28;20412;-75
2021/11/02 11:41:12;;;;;;;2.80;1.60;;;;;;;15.10;48.31;99605.28;4991990;28;20507;-76
2021/11/02 11:43:41;;;;;;;3.85;1.63;;;;;;;15.10;48.40;99607.16;4994396;28;20055;-76
2021/11/02 11:46:11;;;;;;;2.75;1.50;;;;;;;15.11;48.59;99606.16;4971877;28;20457;-77
2021/11/02 11:48:42;;;;;;;2.90;1.50;;;;;;;15.11;48.86;99593.34;4989417;28;20058;-76
2021/11/02 11:51:20;;;;;;;3.22;1.60;;;;;;;15.11;49.27;99603.41;4992705;28;20058;-76
2021/11/02 11:53:48;;;;;;;3.13;1.48;;;;;;;15.07;48.65;99597.41;4976440;28;20100;-76
2021/11/02 11:56:19;;;;;;;3.08;1.70;;;;;;;15.10;48.59;99590.75;4986137;28;20050;-75
2021/11/02 11:58:57;;;;;;;2.95;1.63;;;;;;;15.10;49.14;99593.50;4999412;28;20531;-76
2021/11/02 12:01:46;;;;;;;5.93;1.80;;;;;;;15.06;49.60;99587.50;4987037;28;20062;-75
2021/11/02 12:04:29;;;;;;;3.70;1.85;;;;;;;15.07;49.46;99582.91;4991110;28;20109;-76
2021/11/02 12:07:22;;;;;;;3.42;1.70;;;;;;;15.06;49.67;99581.19;4987854;28;20085;-76
2021/11/02 12:09:49;;;;;;;3.45;1.60;;;;;;;15.03;48.96;99581.50;4993531;28;20147;-76
2021/11/02 12:12:16;;;;;;;2.88;1.60;;;;;;;15.04;48.89;99577.75;4992424;28;20431;-76
2021/11/02 12:14:53;;;;;;;4.32;1.75;;;;;;;15.07;49.51;99577.44;4998503;28;20136;-76
2021/11/02 12:17:21;;;;;;;3.78;1.70;;;;;;;15.05;49.17;99585.78;4997823;28;20045;-75
2021/11/02 12:19:52;;;;;;;3.13;1.60;;;;;;;15.07;49.36;99572.81;4976342;28;20107;-75
2021/11/02 12:22:26;;;;;;;3.78;1.63;;;;;;;15.08;49.72;99571.78;4973964;28;20154;-76
2021/11/02 12:25:06;;;;;;;4.05;1.73;;;;;;;15.10;49.76;99572.47;4996801;28;20453;-76
2021/11/02 12:27:39;;;;;;;3.65;1.90;;;;;;;15.10;49.53;99569.75;5001503;28;20085;-76
2021/11/02 12:30:08;;;;;;;3.50;1.83;;;;;;;15.09;49.03;99575.38;4993601;28;20050;-76
2021/11/02 12:32:35;;;;;;;3.75;1.80;;;;;;;15.11;49.22;99570.59;4988001;28;20054;-75
2021/11/02 12:35:10;;;;;;;4.20;2.10;;;;;;;15.12;49.08;99564.97;4998078;28;20081;-75
2021/11/02 12:37:50;;;;;;;5.75;1.90;;;;;;;15.15;49.31;99563.81;4973673;28;20058;-76
2021/11/02 12:40:23;;;;;;;5.50;2.38;;;;;;;15.13;49.45;99561.25;4976685;28;20440;-76
2021/11/02 12:43:26;;;;;;;3.85;2.10;;;;;;;15.12;49.77;99554.06;5006935;28;20503;-75
2021/11/02 12:45:56;;;;;;;4.65;1.83;;;;;;;15.13;49.14;99550.31;4973486;28;20050;-76
2021/11/02 12:48:24;;;;;;;3.53;1.70;;;;;;;15.16;49.06;99554.56;4992545;28;20080;-76
2021/11/02 12:51:14;;;;;;;5.05;2.10;;;;;;;15.15;49.42;99548.22;4983931;28;20062;-76
2021/11/02 12:53:44;;;;;;;2.58;1.50;;;;;;;15.17;49.66;99553.53;4986036;28;20125;-75
2021/11/02 12:56:18;;;;;;;3.08;1.50;;;;;;;15.18;49.82;99547.91;4990153;28;20108;-76
2021/11/02 12:58:47;;;;;;;3.42;1.90;;;;;;;15.18;49.68;99549.78;4987926;28;20059;-76
2021/11/02 13:01:34;;;;;;;3.88;1.50;;;;;;;15.22;49.62;99540.25;4988515;28;20047;-76
2021/11/02 13:04:07;;;;;;;3.15;1.83;;;;;;;15.23;49.96;99539.25;4966293;28;20046;-76
2021/11/02 13:06:45;;;;;;;4.18;1.90;;;;;;;15.24;49.61;99539.06;4989914;28;20149;-76
2021/11/02 13:09:15;;;;;;;3.40;1.70;;;;;;;15.27;49.69;99537.03;4990625;28;20108;-76
2021/11/02 13:11:43;;;;;;;3.45;1.65;;;;;;;15.26;49.23;99535.31;4989827;28;20069;-74
2021/11/02 13:14:12;;;;;;;3.85;1.90;;;;;;;15.27;49.31;99540.59;4987893;28;20058;-75
2021/11/02 13:17:00;;;;;;;4.90;1.60;;;;;;;15.27;49.22;99537.03;4990148;28;20052;-76
2021/11/02 13:19:34;;;;;;;2.40;1.40;;;;;;;15.29;49.81;99538.56;4988760;28;20058;-76
2021/11/02 13:22:25;;;;;;;3.97;1.70;;;;;;;15.29;49.39;99537.72;4981074;28;20061;-77
2021/11/02 13:25:05;;;;;;;2.97;1.40;;;;;;;15.31;49.26;99533.81;4988133;28;20391;-76
2021/11/02 13:27:47;;;;;;;3.05;1.48;;;;;;;15.33;49.46;99539.94;4989827;28;20101;-76
2021/11/02 13:30:31;;;;;;;4.63;1.40;;;;;;;15.35;49.32;99537.91;4955765;28;20050;-76
2021/11/02 13:33:03;;;;;;;3.92;1.60;;;;;;;15.36;49.43;99544.25;4988424;28;20382;-77
2021/11/02 13:35:40;;;;;;;4.40;2.00;;;;;;;15.36;49.70;99544.25;4975763;28;20140;-77
2021/11/02 13:38:27;;;;;;;3.03;1.50;;;;;;;15.37;49.52;99545.97;4982370;28;20046;-76
2021/11/02 13:41:06;;;;;;;2.83;1.60;;;;;;;15.40;50.03;99534.69;4987967;28;20620;-81
2021/11/02 13:43:40;;;;;;;2.85;1.60;;;;;;;15.41;49.29;99536.38;4975158;28;20557;-78
2021/11/02 13:46:08;;;;;;;2.88;1.42;;;;;;;15.41;49.46;99550.06;4980680;28;20093;-78
2021/11/02 13:48:40;;;;;;;2.72;1.38;;;;;;;15.43;49.63;99539.81;4989884;28;20069;-78
2021/11/02 13:51:10;;;;;;;4.85;1.90;;;;;;;15.44;49.32;99539.66;4977953;28;20042;-77
2021/11/02 13:53:37;;;;;;;3.58;1.50;;;;;;;15.44;49.35;99545.13;4988425;28;20141;-78
2021/11/02 13:56:18;;;;;;;3.75;1.88;;;;;;;15.47;49.80;99542.06;4989339;28;20140;-78
2021/11/02 13:58:46;;;;;;;2.72;1.38;;;;;;;15.44;49.01;99545.13;4989788;28;20084;-77
2021/11/02 14:01:28;;;;;;;3.53;1.70;;;;;;;15.48;49.29;99541.03;4987424;28;20058;-78
2021/11/02 14:04:18;;;;;;;3.58;1.42;;;;;;;15.47;49.68;99544.81;4984657;28;20516;-76
2021/11/02 14:06:48;;;;;;;2.38;1.40;;;;;;;15.47;49.27;99543.94;4989828;28;20077;-77
2021/11/02 14:09:24;;;;;;;3.58;1.73;;;;;;;15.49;49.35;99544.63;4998917;28;20046;-77
2021/11/02 14:11:50;;;;;;;3.17;1.60;;;;;;;15.47;49.40;99539.34;4989114;28;20468;-77
2021/11/02 14:14:31;;;;;;;2.28;1.42;;;;;;;15.50;49.31;99540.84;4983575;28;20058;-76
2021/11/02 14:17:19;;;;;;;2.90;1.30;;;;;;;15.48;49.75;99543.75;4991416;28;20053;-78
2021/11/02 14:19:52;;;;;;;2.33;1.27;;;;;;;15.48;49.32;99541.03;4979491;28;20137;-77
2021/11/02 14:22:49;;;;;;;2.90;1.45;;;;;;;15.47;49.65;99536.59;4993026;28;20046;-77
2021/11/02 14:25:21;;;;;;;3.20;1.60;;;;;;;15.48;49.35;99540.19;4991491;28;20105;-77
2021/11/02 14:27:51;;;;;;;2.50;1.47;;;;;;;15.46;49.50;99539.50;4991918;28;20045;-77
2021/11/02 14:30:40;;;;;;;2.40;1.50;;;;;;;15.47;49.37;99541.22;4975090;28;20161;-77
2021/11/02 14:33:20;;;;;;;3.13;1.40;;;;;;;15.44;49.94;99544.28;4992201;28;20050;-76
2021/11/02 14:35:53;;;;;;;3.20;1.33;;;;;;;15.43;49.29;99537.94;4986736;28;20053;-77
2021/11/02 14:38:43;;;;;;;2.35;1.20;;;;;;;15.39;49.58;99555.72;4995593;28;20065;-76
2021/11/02 14:41:29;;;;;;;3.00;1.35;;;;;;;15.42;49.79;99552.63;4989481;28;20572;-76
2021/11/02 14:44:15;;;;;;;2.42;1.35;;;;;;;15.39;49.63;99542.03;4991874;28;20050;-76
2021/11/02 14:46:45;;;;;;;3.97;1.50;;;;;;;15.41;49.58;99536.38;4991363;28;20054;-77
2021/11/02 14:49:27;;;;;;;2.90;1.58;;;;;;;15.40;50.16;99542.91;4994459;28;20061;-77
2021/11/02 14:52:11;;;;;;;3.92;1.60;;;;;;;15.38;49.85;99542.19;4989473;28;20390;-77
2021/11/02 14:54:44;;;;;;;3.60;1.60;;;;;;;15.39;49.62;99549.38;4969593;28;20097;-77
2021/11/02 14:57:18;;;;;;;3.63;1.58;;;;;;;15.41;49.71;99553.66;4992371;28;20054;-77
2021/11/02 14:59:49;;;;;;;;;;;;;;;15.15;50.08;99559.16;5003245;28;20567;-78
2021/11/02 15:02:35;;;;;;;3.78;2.13;;;;;;;15.39;49.63;99565.81;4992109;28;19922;-78
2021/11/02 15:05:06;;;;;;;3.55;2.05;;;;;;;15.40;49.64;99568.34;4985858;28;20062;-78
2021/11/02 15:07:40;;;;;;;2.85;1.38;;;;;;;15.41;49.49;99570.06;4996485;28;20042;-77
2021/11/02 15:10:09;;;;;;;3.47;2.00;;;;;;;15.40;49.27;99578.47;4985894;28;20062;-77
2021/11/02 15:12:37;;;;;;;1.25;0.98;;;;;;;15.40;49.18;99575.72;4995737;28;20085;-76
2021/11/02 15:15:05;;;;;;;2.33;1.00;;;;;;;15.38;48.97;99578.63;5003746;28;20057;-76
2021/11/02 15:17:31;;;;;;;1.52;0.80;;;;;;;15.35;48.77;99576.19;4991254;28;20489;-75
2021/11/02 15:20:26;;;;;;;1.63;0.90;;;;;;;15.35;48.98;99580.81;5008039;28;20046;-76
2021/11/02 15:22:56;;;;;;;1.77;0.80;;;;;;;15.31;48.79;99577.56;4999480;28;20046;-76
2021/11/02 15:25:26;;;;;;;1.80;0.95;;;;;;;15.26;49.23;99571.72;4979259;28;20046;-76
2021/11/02 15:28:01;;;;;;;2.33;1.10;;;;;;;15.27;49.39;99578.03;4988023;28;20105;-76
2021/11/02 15:30:29;;;;;;;1.77;1.00;;;;;;;15.22;48.81;99578.53;4992875;28;20046;-75
2021/11/02 15:32:56;;;;;;;1.80;1.20;;;;;;;15.20;49.08;99583.31;4993132;28;20062;-76
2021/11/02 15:35:25;;;;;;;1.83;0.88;;;;;;;15.22;48.95;99584.00;4992196;28;20102;-75
2021/11/02 15:37:58;;;;;;;2.60;0.80;;;;;;;15.19;49.28;99587.91;4992402;28;20129;-76
2021/11/02 15:40:36;;;;;;;1.88;0.80;;;;;;;15.16;49.30;99580.03;4986258;28;20128;-75
2021/11/02 15:43:07;;;;;;;2.17;0.98;;;;;;;15.17;49.14;99589.09;4989925;28;20058;-76
2021/11/02 15:45:38;;;;;;;1.67;0.90;;;;;;;15.16;49.38;99584.63;4994522;28;20422;-75
2021/11/02 15:48:11;;;;;;;1.88;0.80;;;;;;;15.16;49.31;99581.91;4993589;28;20050;-75
2021/11/02 15:50:49;;;;;;;1.23;0.70;;;;;;;15.13;49.42;99585.84;4973205;28;20114;-74
2021/11/02 15:53:25;;;;;;;0.85;0.60;;;;;;;15.13;49.42;99582.25;5000336;28;20486;-75
2021/11/02 15:55:56;;;;;;;2.10;1.10;;;;;;;15.12;49.17;99584.13;4998045;28;20062;-74
2021/11/02 15:58:24;;;;;;;2.03;1.20;;;;;;;15.09;49.12;99581.69;4990227;28;20080;-75
2021/11/02 16:00:50;;;;;;;4.05;1.77;;;;;;;15.09;49.37;99591.78;4984012;28;20112;-76
2021/11/02 16:03:17;;;;;;;1.70;1.20;;;;;;;15.07;49.54;99586.47;4980791;28;20056;-75
2021/11/02 16:05:44;;;;;;;2.60;1.20;;;;;;;15.07;49.02;99593.84;4999061;28;20046;-75
2021/11/02 16:08:17;;;;;;;2.30;1.00;;;;;;;15.08;49.55;99590.91;4972014;28;20564;-76
2021/11/02 16:10:48;;;;;;;1.55;0.70;;;;;;;15.04;49.38;99594.16;4979202;28;20474;-76
2021/11/02 16:13:24;;;;;;;1.20;0.80;;;;;;;15.06;49.59;99592.13;5005700;28;20077;-74
2021/11/02 16:15:55;;;;;;;1.55;0.80;;;;;;;15.03;50.01;99590.56;4990160;28;20109;-76
2021/11/02 16:18:32;;;;;;;1.73;0.90;;;;;;;15.04;49.16;99594.16;4998199;28;20088;-76
2021/11/02 16:21:09;;;;;;;2.58;1.20;;;;;;;15.04;49.80;99594.16;4993489;28;20084;-75
2021/11/02 16:23:47;;;;;;;2.28;1.08;;;;;;;15.03;49.44;99597.91;4993993;28;20049;-75
2021/11/02 16:26:27;;;;;;;2.20;1.05;;;;;;;15.01;49.32;99589.84;4989426;28;20140;-76
2021/11/02 16:29:13;;;;;;;2.47;1.30;;;;;;;15.01;49.42;99599.94;4971193;28;20081;-75
2021/11/02 16:31:41;;;;;;;2.65;1.30;;;;;;;14.98;49.66;99594.81;4986545;28;20533;-75
2021/11/02 16:34:19;;;;;;;2.67;1.30;;;;;;;15.01;49.69;99595.31;4991477;28;20418;-74
2021/11/02 16:36:46;;;;;;;3.05;1.48;;;;;;;14.97;49.38;99598.56;4992101;28;20390;-76
2021/11/02 16:39:12;;;;;;;3.00;1.38;;;;;;;14.97;49.59;99604.88;4997056;28;20042;-75
2021/11/02 16:41:44;;;;;;;2.80;1.40;;;;;;;15.00;49.79;99606.41;4989065;28;20125;-75
2021/11/02 16:44:13;;;;;;;2.80;1.38;;;;;;;14.99;49.51;99602.81;4993366;28;20421;-76
2021/11/02 16:46:44;;;;;;;3.70;1.95;;;;;;;14.99;49.65;99604.72;5007055;28;20045;-75
2021/11/02 16:49:24;;;;;;;4.05;1.70;;;;;;;15.00;49.64;99603.69;4993742;28;20050;-76
2021/11/02 16:51:51;;;;;;;2.38;1.27;;;;;;;14.96;49.52;99603.16;4990551;28;20050;-74
2021/11/02 16:54:28;;;;;;;1.92;0.88;;;;;;;15.00;49.47;99606.41;4975808;28;20054;-75
2021/11/02 16:56:58;;;;;;;2.65;1.00;;;;;;;14.96;49.53;99610.50;4999130;28;20050;-76
2021/11/02 16:59:40;;;;;;;2.35;1.00;;;;;;;14.97;49.66;99613.06;4994155;28;20050;-76
2021/11/02 17:02:29;;;;;;;2.43;1.00;;;;;;;14.95;50.01;99616.97;4992872;28;20046;-75
2021/11/02 17:05:25;;;;;;;1.33;1.00;;;;;;;14.97;49.89;99615.81;4981464;28;20568;-76
2021/11/02 17:08:11;;;;;;;2.10;1.10;;;;;;;14.94;50.14;99618.84;4990735;28;20047;-75
2021/11/02 17:10:49;;;;;;;2.40;0.90;;;;;;;14.94;49.63;99618.84;4992110;28;20046;-75
2021/11/02 17:13:22;;;;;;;2.63;1.10;;;;;;;14.93;49.67;99624.47;4996842;28;20081;-75
2021/11/02 17:16:02;;;;;;;2.08;1.13;;;;;;;14.94;49.96;99618.84;4994008;28;20065;-75